Time;durP1;ratioP1;P1;durP2;ratioP2;P2;SDS_P1;SDS_P2;PMS_P1;PMS_P2;Temp;Humidity;BMP_temperature;BMP_pressure;BME280_temperature;BME280_humidity;BME280_pressure;Samples;Min_cycle;Max_cycle;Signal;HPM_P1;HPM_P2
2023/01/30 00:01:45;;;;;;;9.03;7.97;;;2.30;99.90;;;;;;5009059;28;20209;-58
2023/01/30 00:04:11;;;;;;;11.43;9.27;;;2.30;99.90;;;;;;5011672;28;20199;-59
2023/01/30 00:06:38;;;;;;;10.63;8.80;;;2.30;99.90;;;;;;5013121;28;20567;-58
2023/01/30 00:09:04;;;;;;;14.30;10.13;;;2.30;99.90;;;;;;5007405;28;20256;-59
2023/01/30 00:11:32;;;;;;;9.20;7.60;;;2.30;99.90;;;;;;5008573;28;20205;-57
2023/01/30 00:13:58;;;;;;;9.43;7.30;;;2.30;99.90;;;;;;5007519;28;20277;-58
2023/01/30 00:16:24;;;;;;;10.70;8.77;;;2.30;99.90;;;;;;5008805;28;20206;-58
2023/01/30 00:18:50;;;;;;;11.87;8.73;;;2.30;99.90;;;;;;5009223;28;20264;-59
2023/01/30 00:21:15;;;;;;;11.40;9.40;;;2.20;99.90;;;;;;5007564;28;20708;-58
2023/01/30 00:23:42;;;;;;;15.40;8.97;;;2.30;99.90;;;;;;5009138;28;20218;-58
2023/01/30 00:26:08;;;;;;;10.80;7.53;;;2.30;99.90;;;;;;5009707;28;20335;-58
2023/01/30 00:28:34;;;;;;;12.03;9.47;;;2.30;99.90;;;;;;5010538;28;20243;-58
2023/01/30 00:31:00;;;;;;;11.47;8.93;;;2.20;99.90;;;;;;5011813;28;20392;-59
2023/01/30 00:33:26;;;;;;;13.23;10.43;;;2.20;99.90;;;;;;5006613;28;20203;-58
2023/01/30 00:35:53;;;;;;;13.50;9.40;;;2.30;99.90;;;;;;5007427;28;20857;-59
2023/01/30 00:38:20;;;;;;;10.87;9.40;;;2.30;99.90;;;;;;5005128;28;20285;-60
2023/01/30 00:40:46;;;;;;;10.87;8.77;;;2.30;99.90;;;;;;5006916;28;20562;-59
2023/01/30 00:48:43;;;;;;;9.50;7.57;;;2.30;99.90;;;;;;5006415;28;20214;-58
2023/01/30 00:51:09;;;;;;;12.53;10.63;;;2.30;99.90;;;;;;5005529;28;20742;-58
2023/01/30 00:53:34;;;;;;;12.73;9.87;;;2.30;99.90;;;;;;5010572;28;20277;-57
2023/01/30 00:56:00;;;;;;;10.63;9.17;;;2.30;99.90;;;;;;5008707;28;20206;-59
2023/01/30 00:58:26;;;;;;;14.43;11.13;;;2.30;99.90;;;;;;5008710;28;20222;-59
2023/01/30 01:00:52;;;;;;;13.57;10.73;;;2.30;99.90;;;;;;5006980;28;20214;-58
2023/01/30 01:03:18;;;;;;;14.27;9.43;;;2.30;99.90;;;;;;5006033;28;20319;-59
2023/01/30 01:05:44;;;;;;;11.63;9.87;;;2.30;99.90;;;;;;5004891;28;20215;-59
2023/01/30 01:08:10;;;;;;;14.10;11.27;;;2.20;99.90;;;;;;5006120;28;20203;-58
2023/01/30 01:10:36;;;;;;;13.17;9.87;;;2.20;99.90;;;;;;5008418;28;20209;-58
2023/01/30 01:13:02;;;;;;;14.73;12.50;;;2.20;99.90;;;;;;5011098;28;20571;-61
2023/01/30 01:15:27;;;;;;;14.23;10.73;;;2.20;99.90;;;;;;5007371;28;20531;-60
2023/01/30 01:17:53;;;;;;;14.57;11.03;;;2.20;99.90;;;;;;5008361;28;20243;-58
2023/01/30 01:20:20;;;;;;;13.93;10.23;;;2.20;99.90;;;;;;5006765;28;20198;-58
2023/01/30 01:22:49;;;;;;;11.57;9.00;;;2.20;99.90;;;;;;5007585;28;20274;-59
2023/01/30 01:25:14;;;;;;;11.13;8.90;;;2.20;99.90;;;;;;5004567;28;20266;-60
2023/01/30 01:27:40;;;;;;;17.20;11.30;;;2.30;99.90;;;;;;5004356;28;20207;-60
2023/01/30 01:30:06;;;;;;;13.57;10.67;;;2.20;99.90;;;;;;5011687;28;20198;-59
2023/01/30 01:32:32;;;;;;;13.37;11.17;;;2.20;99.90;;;;;;5009614;28;20213;-58
2023/01/30 01:34:58;;;;;;;13.77;10.73;;;2.20;99.90;;;;;;5007064;28;20193;-58
2023/01/30 01:37:23;;;;;;;12.87;9.90;;;2.20;99.90;;;;;;5002186;28;20724;-58
2023/01/30 01:42:35;;;;;;;14.33;11.67;;;2.20;99.90;;;;;;5015064;28;20218;-57
2023/01/30 01:45:10;;;;;;;14.97;10.97;;;2.20;99.90;;;;;;5013234;28;20233;-57
2023/01/30 01:47:39;;;;;;;12.10;9.73;;;2.20;99.90;;;;;;5010708;28;20214;-58
2023/01/30 01:50:09;;;;;;;15.97;11.77;;;2.20;99.90;;;;;;5014442;28;20210;-57
2023/01/30 01:52:35;;;;;;;17.63;12.40;;;2.20;99.90;;;;;;5012346;28;21015;-57
2023/01/30 01:55:06;;;;;;;12.33;9.57;;;2.30;99.90;;;;;;4997070;28;20313;-58
2023/01/30 01:57:58;;;;;;;16.63;11.93;;;2.30;99.90;;;;;;5002139;28;20222;-57
2023/01/30 02:00:24;;;;;;;14.30;11.30;;;2.30;99.90;;;;;;4991433;28;20203;-57
2023/01/30 02:03:06;;;;;;;13.40;10.70;;;2.30;99.90;;;;;;5001459;28;20196;-57
2023/01/30 02:05:35;;;;;;;15.67;11.70;;;2.20;99.90;;;;;;5009470;28;20696;-57
2023/01/30 02:08:06;;;;;;;16.73;13.00;;;2.20;99.90;;;;;;5007006;28;20187;-58
2023/01/30 02:11:14;;;;;;;17.10;12.77;;;2.10;99.90;;;;;;5007508;28;20284;-57
2023/01/30 02:13:39;;;;;;;17.27;12.47;;;2.00;99.90;;;;;;5006208;28;20640;-57
2023/01/30 02:16:06;;;;;;;12.67;9.63;;;1.90;99.90;;;;;;4996580;28;20203;-58
2023/01/30 02:18:34;;;;;;;14.43;11.17;;;1.90;99.90;;;;;;5000202;28;20197;-58
2023/01/30 02:21:20;;;;;;;22.73;13.53;;;1.90;99.90;;;;;;5004652;28;20318;-58
2023/01/30 02:24:09;;;;;;;15.53;12.07;;;1.90;99.90;;;;;;4959929;28;20227;-58
2023/01/30 02:27:14;;;;;;;12.90;10.33;;;1.90;99.90;;;;;;5008110;28;20226;-57
2023/01/30 02:30:25;;;;;;;21.77;14.27;;;1.90;99.90;;;;;;5009232;28;20239;-56
2023/01/30 02:33:04;;;;;;;18.13;11.70;;;2.00;99.90;;;;;;4966619;28;20203;-56
2023/01/30 02:35:37;;;;;;;17.60;13.73;;;2.00;99.90;;;;;;5010752;28;20746;-57
2023/01/30 02:38:14;;;;;;;16.37;10.43;;;2.00;99.90;;;;;;4996276;28;20289;-60
2023/01/30 02:41:01;;;;;;;21.17;15.47;;;2.00;99.90;;;;;;5010044;28;20200;-60
2023/01/30 02:43:50;;;;;;;19.00;14.47;;;1.80;99.90;;;;;;5007204;28;20213;-60
2023/01/30 02:46:24;;;;;;;18.70;12.73;;;1.60;99.90;;;;;;5011682;28;21103;-60
2023/01/30 02:48:58;;;;;;;20.77;14.27;;;1.50;99.90;;;;;;5010885;28;20199;-60
2023/01/30 02:51:29;;;;;;;18.03;13.43;;;1.50;99.90;;;;;;5010353;28;20529;-60
2023/01/30 02:53:55;;;;;;;19.40;14.50;;;1.50;99.90;;;;;;5014844;28;20255;-60
2023/01/30 02:56:20;;;;;;;13.13;10.83;;;1.60;99.90;;;;;;5011760;28;20208;-60
2023/01/30 02:58:55;;;;;;;19.90;14.17;;;1.60;99.90;;;;;;5007399;28;20527;-61
2023/01/30 03:01:39;;;;;;;20.27;13.20;;;1.60;99.90;;;;;;5001975;28;20660;-58
2023/01/30 03:04:31;;;;;;;17.43;13.70;;;1.60;99.90;;;;;;5001059;28;20287;-59
2023/01/30 03:07:23;;;;;;;19.90;15.00;;;1.60;99.90;;;;;;5006234;28;20798;-58
2023/01/30 03:09:52;;;;;;;15.30;11.47;;;1.70;99.90;;;;;;4999561;28;21199;-59
2023/01/30 03:12:51;;;;;;;13.50;11.53;;;1.70;99.90;;;;;;5000426;28;20199;-58
2023/01/30 03:15:32;;;;;;;19.67;13.40;;;1.80;99.90;;;;;;5000176;28;20219;-59
2023/01/30 03:18:00;;;;;;;18.27;11.47;;;1.80;99.90;;;;;;5002924;28;20230;-60
2023/01/30 03:20:25;;;;;;;16.17;12.40;;;1.90;99.90;;;;;;5000794;28;20661;-61
2023/01/30 03:22:52;;;;;;;20.10;14.63;;;2.00;99.90;;;;;;5006226;28;20234;-61
2023/01/30 03:25:22;;;;;;;16.80;12.93;;;2.00;99.90;;;;;;5007529;28;20312;-61
2023/01/30 03:27:50;;;;;;;19.80;12.63;;;2.10;99.90;;;;;;5005756;28;20237;-60
2023/01/30 03:30:16;;;;;;;13.27;9.57;;;2.10;99.90;;;;;;5013712;28;20217;-60
2023/01/30 03:32:41;;;;;;;16.70;11.73;;;2.20;99.90;;;;;;5008535;28;20214;-60
2023/01/30 03:35:08;;;;;;;12.00;9.60;;;2.20;99.90;;;;;;5012885;28;20243;-60
2023/01/30 03:37:33;;;;;;;16.57;13.00;;;2.20;99.90;;;;;;5011123;28;20263;-60
2023/01/30 03:39:59;;;;;;;16.97;13.07;;;2.30;99.90;;;;;;5009653;28;20206;-59
2023/01/30 03:42:25;;;;;;;18.27;12.97;;;2.30;99.90;;;;;;5006747;28;20210;-59
2023/01/30 03:44:50;;;;;;;17.23;11.87;;;2.30;99.90;;;;;;5005983;28;20204;-59
2023/01/30 03:47:16;;;;;;;19.93;10.40;;;2.30;99.90;;;;;;5005672;28;20221;-59
2023/01/30 03:49:41;;;;;;;13.20;11.87;;;2.40;99.90;;;;;;5003239;28;20298;-59
2023/01/30 03:52:07;;;;;;;20.73;12.47;;;2.40;99.90;;;;;;5004908;28;20207;-58
2023/01/30 03:54:32;;;;;;;20.80;12.60;;;2.30;99.90;;;;;;5001928;28;20199;-61
2023/01/30 03:56:58;;;;;;;17.43;13.50;;;2.30;99.90;;;;;;5002076;28;20205;-58
2023/01/30 03:59:23;;;;;;;20.23;13.77;;;2.30;99.90;;;;;;5003497;28;20273;-59
2023/01/30 04:01:49;;;;;;;15.10;12.20;;;2.30;99.90;;;;;;5005124;28;20574;-60
2023/01/30 04:04:14;;;;;;;17.77;12.80;;;2.30;99.90;;;;;;5003708;28;20293;-60
2023/01/30 04:06:39;;;;;;;18.60;13.60;;;2.40;99.90;;;;;;5005541;28;20218;-58
2023/01/30 04:09:05;;;;;;;17.50;13.57;;;2.50;99.90;;;;;;5004589;28;20253;-59
2023/01/30 04:11:30;;;;;;;16.80;13.90;;;2.50;99.90;;;;;;4984836;28;20205;-60
2023/01/30 04:13:56;;;;;;;14.77;11.13;;;2.50;99.90;;;;;;5004469;28;20204;-59
2023/01/30 04:16:24;;;;;;;12.27;10.97;;;2.60;99.90;;;;;;5004157;28;20197;-59
2023/01/30 04:18:50;;;;;;;19.33;12.27;;;2.70;99.90;;;;;;5007849;28;20437;-58
2023/01/30 04:21:15;;;;;;;15.17;12.63;;;2.70;99.90;;;;;;5003802;28;20213;-59
2023/01/30 04:23:41;;;;;;;15.67;12.33;;;2.80;99.90;;;;;;5007284;28;20593;-58
2023/01/30 04:26:08;;;;;;;14.00;10.87;;;2.80;99.90;;;;;;5007890;28;20365;-58
2023/01/30 04:28:33;;;;;;;11.83;10.60;;;2.80;99.90;;;;;;5008272;28;20296;-59
2023/01/30 04:30:59;;;;;;;18.10;11.00;;;2.80;99.90;;;;;;5007583;28;20293;-60
2023/01/30 04:33:25;;;;;;;14.80;13.13;;;2.90;99.90;;;;;;5007784;28;20702;-59
2023/01/30 04:35:55;;;;;;;16.77;12.57;;;2.90;99.90;;;;;;5005277;28;20206;-59
2023/01/30 04:38:21;;;;;;;15.10;12.37;;;2.90;99.90;;;;;;5007293;28;20234;-60
2023/01/30 04:40:48;;;;;;;17.37;13.03;;;2.90;99.90;;;;;;5010518;28;20735;-58
2023/01/30 04:43:13;;;;;;;12.80;11.23;;;2.90;99.90;;;;;;5004809;28;20297;-59
2023/01/30 04:45:45;;;;;;;13.73;10.37;;;2.90;99.90;;;;;;5012218;28;20309;-60
2023/01/30 04:48:11;;;;;;;16.07;12.23;;;2.80;99.90;;;;;;5013990;28;20294;-60
2023/01/30 04:50:38;;;;;;;11.40;10.17;;;2.70;99.90;;;;;;5013575;28;20207;-59
2023/01/30 04:53:04;;;;;;;16.23;10.33;;;2.70;99.90;;;;;;5013088;28;20234;-58
2023/01/30 04:55:29;;;;;;;15.03;11.23;;;2.60;99.90;;;;;;5009132;28;20242;-59
2023/01/30 04:57:55;;;;;;;20.43;14.77;;;2.60;99.90;;;;;;5005557;28;20254;-60
2023/01/30 05:00:20;;;;;;;16.30;12.63;;;2.50;99.90;;;;;;5006738;28;20218;-59
2023/01/30 05:02:46;;;;;;;15.77;12.73;;;2.50;99.90;;;;;;5007070;28;20294;-60
2023/01/30 05:05:11;;;;;;;17.93;13.27;;;2.50;99.90;;;;;;5003766;28;20205;-60
2023/01/30 05:07:37;;;;;;;21.43;13.80;;;2.40;99.90;;;;;;5007816;28;20238;-60
2023/01/30 05:10:03;;;;;;;21.17;14.57;;;2.30;99.90;;;;;;5003331;28;20323;-60
2023/01/30 05:12:29;;;;;;;21.33;15.57;;;2.20;99.90;;;;;;5011506;28;20201;-60
2023/01/30 05:14:55;;;;;;;18.83;14.73;;;2.20;99.90;;;;;;5012301;28;20200;-60
2023/01/30 05:17:20;;;;;;;18.77;15.30;;;2.20;99.90;;;;;;5013196;28;20539;-59
2023/01/30 05:19:46;;;;;;;18.47;12.70;;;2.20;99.90;;;;;;5011550;28;20206;-60
2023/01/30 05:22:11;;;;;;;22.63;17.43;;;2.10;99.90;;;;;;5001995;28;20850;-61
2023/01/30 05:24:37;;;;;;;19.47;14.70;;;2.10;99.90;;;;;;4996098;28;20217;-59
2023/01/30 05:27:02;;;;;;;21.47;13.17;;;2.10;99.90;;;;;;4996724;28;20247;-59
2023/01/30 05:29:29;;;;;;;20.43;12.83;;;2.10;99.90;;;;;;5003869;28;20255;-60
2023/01/30 05:31:54;;;;;;;22.23;15.93;;;2.10;99.90;;;;;;5013061;28;20228;-61
2023/01/30 05:34:20;;;;;;;22.67;14.87;;;2.10;99.90;;;;;;5006550;28;20200;-59
2023/01/30 05:36:45;;;;;;;17.27;13.37;;;2.20;99.90;;;;;;4997227;28;20230;-60
2023/01/30 05:39:11;;;;;;;18.90;15.40;;;2.20;99.90;;;;;;5009447;28;20218;-60
2023/01/30 05:41:36;;;;;;;23.10;17.67;;;2.20;99.90;;;;;;5005702;28;20671;-59
2023/01/30 05:44:02;;;;;;;23.73;16.33;;;2.20;99.90;;;;;;4997899;28;20234;-59
2023/01/30 05:46:27;;;;;;;16.43;12.70;;;2.20;99.90;;;;;;5004402;28;20223;-60
2023/01/30 05:48:53;;;;;;;17.40;13.50;;;2.20;99.90;;;;;;5011120;28;20203;-59
2023/01/30 05:51:21;;;;;;;27.27;17.70;;;2.30;99.90;;;;;;5005772;28;20200;-60
2023/01/30 05:53:46;;;;;;;26.33;18.30;;;2.30;99.90;;;;;;5005137;28;20233;-60
2023/01/30 05:56:12;;;;;;;24.03;14.27;;;2.30;99.90;;;;;;5007811;28;20262;-60
2023/01/30 05:58:38;;;;;;;25.20;18.20;;;2.40;99.90;;;;;;5006252;28;20264;-59
2023/01/30 06:01:08;;;;;;;23.20;18.43;;;2.40;99.90;;;;;;4998862;28;20676;-60
2023/01/30 06:03:34;;;;;;;23.03;17.40;;;2.40;99.90;;;;;;5006543;28;20288;-60
2023/01/30 06:06:04;;;;;;;25.87;18.30;;;2.40;99.90;;;;;;5009714;28;20685;-61
2023/01/30 06:08:30;;;;;;;18.97;13.80;;;2.40;99.90;;;;;;5002348;28;20289;-60
2023/01/30 06:11:03;;;;;;;20.23;16.17;;;2.40;99.90;;;;;;5009732;28;20199;-60
2023/01/30 06:13:29;;;;;;;22.77;15.93;;;2.50;99.90;;;;;;5006009;28;20228;-61
2023/01/30 06:15:54;;;;;;;25.03;15.43;;;2.50;99.90;;;;;;5002197;28;20234;-60
2023/01/30 06:18:20;;;;;;;25.03;19.17;;;2.50;99.90;;;;;;5005666;28;20207;-60
2023/01/30 06:20:48;;;;;;;25.37;17.33;;;2.60;99.90;;;;;;5004793;28;20210;-60
2023/01/30 06:23:13;;;;;;;29.23;18.67;;;2.60;99.90;;;;;;5002000;28;20226;-60
2023/01/30 06:25:42;;;;;;;20.17;14.57;;;2.60;99.90;;;;;;5004692;28;20583;-59
2023/01/30 06:28:08;;;;;;;19.67;12.70;;;2.60;99.90;;;;;;5002871;28;20202;-60
2023/01/30 06:30:33;;;;;;;21.33;15.37;;;2.70;99.90;;;;;;5013509;28;20194;-59
2023/01/30 06:32:59;;;;;;;20.27;15.43;;;2.70;99.90;;;;;;5013917;28;20288;-60
2023/01/30 06:35:24;;;;;;;23.80;14.30;;;2.70;99.90;;;;;;5004269;28;20191;-60
2023/01/30 06:37:49;;;;;;;17.90;12.43;;;2.80;99.90;;;;;;5010220;28;20691;-61
2023/01/30 06:40:15;;;;;;;16.83;13.20;;;2.80;99.90;;;;;;5004354;28;20193;-59
2023/01/30 06:42:45;;;;;;;20.23;14.10;;;2.80;99.90;;;;;;5003697;28;20217;-60
2023/01/30 06:45:13;;;;;;;20.00;13.37;;;2.90;99.90;;;;;;5004927;28;20198;-60
2023/01/30 06:47:52;;;;;;;15.67;12.83;;;2.90;99.90;;;;;;5004518;28;20215;-60
2023/01/30 06:50:20;;;;;;;16.80;12.57;;;2.90;99.90;;;;;;5007409;28;20696;-60
2023/01/30 06:52:48;;;;;;;20.17;12.60;;;3.00;99.90;;;;;;4997028;28;20712;-61
2023/01/30 06:55:16;;;;;;;16.50;12.00;;;3.00;99.90;;;;;;5005723;28;20299;-60
2023/01/30 06:57:42;;;;;;;20.10;11.93;;;3.10;99.90;;;;;;4996343;28;20743;-59
2023/01/30 07:00:16;;;;;;;12.63;10.83;;;3.10;99.90;;;;;;4995938;28;20293;-58
2023/01/30 07:02:42;;;;;;;14.13;10.17;;;3.20;99.90;;;;;;5005280;28;20833;-59
2023/01/30 07:05:08;;;;;;;17.10;12.63;;;3.20;99.90;;;;;;5009034;28;20289;-60
2023/01/30 07:07:34;;;;;;;14.73;13.20;;;3.30;99.90;;;;;;5008271;28;20219;-58
2023/01/30 07:10:01;;;;;;;17.30;12.03;;;3.30;99.90;;;;;;5003977;28;20563;-59
2023/01/30 07:12:26;;;;;;;12.87;9.30;;;3.30;99.90;;;;;;5005443;28;20249;-59
2023/01/30 07:14:52;;;;;;;13.53;11.03;;;3.30;99.90;;;;;;5004945;28;20200;-59
2023/01/30 07:17:19;;;;;;;15.10;10.73;;;3.30;99.90;;;;;;5001274;28;20210;-59
2023/01/30 07:19:45;;;;;;;12.00;8.43;;;3.40;99.90;;;;;;4999929;28;20205;-59
2023/01/30 07:22:11;;;;;;;12.30;9.13;;;3.40;99.90;;;;;;5001403;28;20230;-58
2023/01/30 07:24:38;;;;;;;16.20;11.73;;;3.50;99.90;;;;;;5005927;28;20295;-59
2023/01/30 07:27:06;;;;;;;13.73;10.20;;;3.50;99.90;;;;;;5006629;28;20704;-59
2023/01/30 07:29:31;;;;;;;13.47;9.93;;;3.60;99.90;;;;;;5011432;28;20681;-59
2023/01/30 07:31:56;;;;;;;10.13;8.57;;;3.60;99.90;;;;;;5009058;28;20188;-60
2023/01/30 07:34:22;;;;;;;9.60;7.40;;;3.70;99.90;;;;;;5012472;28;20211;-61
2023/01/30 07:36:47;;;;;;;10.60;8.43;;;3.70;99.90;;;;;;5006109;28;20212;-60
2023/01/30 07:39:13;;;;;;;10.40;8.03;;;3.80;99.90;;;;;;5006379;28;20213;-60
2023/01/30 07:41:38;;;;;;;12.30;9.30;;;3.80;99.90;;;;;;5005626;28;20253;-59
2023/01/30 07:44:04;;;;;;;8.93;8.03;;;3.80;99.90;;;;;;5015315;28;20206;-59
2023/01/30 07:46:33;;;;;;;10.67;8.13;;;3.80;99.90;;;;;;5005493;28;20211;-60
2023/01/30 07:49:00;;;;;;;10.77;8.47;;;3.80;99.90;;;;;;5000367;28;20215;-61
2023/01/30 07:51:26;;;;;;;9.57;7.30;;;3.80;99.90;;;;;;5016009;28;20203;-61
2023/01/30 07:53:51;;;;;;;11.33;9.77;;;3.80;99.90;;;;;;5009868;28;20233;-61
2023/01/30 07:56:18;;;;;;;10.70;8.27;;;3.80;99.90;;;;;;5001772;28;20200;-60
2023/01/30 07:58:44;;;;;;;9.33;7.33;;;3.80;99.90;;;;;;5010311;28;20256;-59
2023/01/30 08:01:10;;;;;;;9.60;7.77;;;3.80;99.90;;;;;;5006234;28;20206;-59
2023/01/30 08:03:35;;;;;;;12.17;8.83;;;3.80;99.90;;;;;;5010471;28;20681;-60
2023/01/30 08:06:01;;;;;;;11.27;9.07;;;3.80;99.90;;;;;;5007430;28;20306;-60
2023/01/30 08:08:26;;;;;;;10.20;8.73;;;3.90;99.90;;;;;;5009211;28;20206;-60
2023/01/30 08:10:52;;;;;;;8.07;7.20;;;3.90;99.90;;;;;;5010150;28;20192;-60
2023/01/30 08:13:17;;;;;;;10.27;8.07;;;3.90;99.90;;;;;;5010109;28;20195;-63
2023/01/30 08:15:43;;;;;;;8.63;7.83;;;4.00;99.90;;;;;;5012725;28;20228;-61
2023/01/30 08:18:08;;;;;;;11.50;8.33;;;4.00;99.90;;;;;;5016382;28;20206;-60
2023/01/30 08:20:35;;;;;;;11.30;9.03;;;4.00;99.90;;;;;;5002090;28;20270;-60
2023/01/30 08:23:01;;;;;;;13.10;9.27;;;4.00;99.90;;;;;;5007787;28;20215;-60
2023/01/30 08:25:27;;;;;;;9.90;6.67;;;4.00;99.90;;;;;;5013531;28;20218;-59
2023/01/30 08:27:57;;;;;;;8.63;6.43;;;4.00;99.90;;;;;;5002506;28;20204;-60
2023/01/30 08:30:22;;;;;;;10.43;8.13;;;4.00;99.90;;;;;;5013281;28;20261;-61
2023/01/30 08:32:48;;;;;;;9.50;7.03;;;4.10;99.90;;;;;;5009539;28;20204;-60
2023/01/30 08:35:13;;;;;;;8.90;6.97;;;4.10;99.90;;;;;;5013041;28;20190;-60
2023/01/30 08:37:40;;;;;;;9.33;7.43;;;4.10;99.90;;;;;;5007470;28;20230;-60
2023/01/30 08:40:07;;;;;;;12.73;7.63;;;4.10;99.90;;;;;;5002902;28;20620;-61
2023/01/30 08:42:32;;;;;;;6.97;5.70;;;4.10;99.90;;;;;;5011430;28;20654;-60
2023/01/30 08:44:58;;;;;;;10.23;7.07;;;4.10;99.90;;;;;;5005683;28;20761;-60
2023/01/30 08:47:23;;;;;;;7.00;6.30;;;4.10;99.90;;;;;;5014126;28;20226;-60
2023/01/30 08:49:51;;;;;;;12.37;6.13;;;4.10;99.90;;;;;;5015847;28;20965;-59
2023/01/30 08:52:17;;;;;;;7.90;6.10;;;4.20;99.90;;;;;;5011098;28;20254;-59
2023/01/30 08:54:43;;;;;;;6.50;4.97;;;4.20;99.90;;;;;;5005740;28;20206;-58
2023/01/30 08:57:08;;;;;;;7.00;5.73;;;4.30;99.90;;;;;;5015771;28;20196;-59
2023/01/30 08:59:34;;;;;;;6.90;5.63;;;4.30;99.90;;;;;;5009450;28;20689;-59
2023/01/30 09:01:59;;;;;;;4.37;3.97;;;4.40;99.90;;;;;;5006767;28;20207;-59
2023/01/30 09:04:25;;;;;;;8.00;5.30;;;4.50;99.90;;;;;;5008294;28;20768;-59
2023/01/30 09:06:51;;;;;;;4.30;3.83;;;4.50;99.90;;;;;;5006966;28;20226;-60
2023/01/30 09:09:17;;;;;;;6.47;4.57;;;4.60;99.90;;;;;;5008095;28;20691;-60
2023/01/30 09:11:42;;;;;;;3.47;3.07;;;4.60;99.90;;;;;;5011872;28;20338;-59
2023/01/30 09:14:08;;;;;;;5.17;4.00;;;4.60;99.90;;;;;;5012447;28;20202;-60
2023/01/30 09:16:34;;;;;;;5.47;4.17;;;4.60;99.90;;;;;;5007223;28;20211;-59
2023/01/30 09:18:59;;;;;;;6.77;4.43;;;4.60;99.90;;;;;;5006164;28;20200;-59
2023/01/30 09:21:25;;;;;;;5.77;4.10;;;4.60;99.90;;;;;;5002791;28;20223;-60
2023/01/30 09:23:50;;;;;;;5.77;4.33;;;4.70;99.90;;;;;;5005226;28;20713;-59
2023/01/30 09:26:16;;;;;;;6.73;4.83;;;4.80;99.90;;;;;;5008046;28;20294;-60
2023/01/30 09:28:41;;;;;;;8.10;3.80;;;4.80;99.90;;;;;;5002114;28;20604;-60
2023/01/30 09:31:07;;;;;;;3.87;3.03;;;4.80;99.90;;;;;;5009434;28;20204;-61
2023/01/30 09:33:32;;;;;;;3.90;2.77;;;4.80;99.90;;;;;;5005462;28;20205;-59
2023/01/30 09:35:58;;;;;;;5.03;3.20;;;4.80;99.90;;;;;;5014277;28;20606;-59
2023/01/30 09:38:23;;;;;;;4.33;2.80;;;4.90;99.90;;;;;;5010808;28;20231;-59
2023/01/30 09:40:58;;;;;;;2.23;1.77;;;4.90;99.90;;;;;;5009942;28;20593;-61
2023/01/30 09:43:35;;;;;;;5.20;2.63;;;4.90;99.90;;;;;;5007331;28;20207;-69
2023/01/30 09:46:15;;;;;;;2.53;1.73;;;5.20;99.90;;;;;;5004649;28;20215;-80
2023/01/30 09:49:15;;;;;;;6.57;2.73;;;5.50;99.90;;;;;;5012366;28;20705;-66
2023/01/30 09:51:49;;;;;;;7.23;2.40;;;5.70;99.90;;;;;;5009876;28;20283;-67
2023/01/30 09:54:29;;;;;;;5.53;2.63;;;5.80;99.90;;;;;;5000968;28;20730;-65
2023/01/30 09:57:19;;;;;;;3.80;1.90;;;5.90;99.90;;;;;;5002270;28;20666;-65
2023/01/30 10:00:12;;;;;;;2.57;1.90;;;6.00;99.90;;;;;;5004256;28;20235;-65
2023/01/30 10:02:43;;;;;;;7.07;1.73;;;6.10;99.90;;;;;;5005891;28;20235;-64
2023/01/30 10:05:09;;;;;;;4.93;2.50;;;6.10;99.90;;;;;;5002538;28;20206;-65
2023/01/30 10:07:56;;;;;;;4.50;1.87;;;6.00;99.90;;;;;;5006617;28;20211;-65
2023/01/30 10:10:42;;;;;;;4.60;2.60;;;6.10;99.90;;;;;;5006377;28;20199;-66
2023/01/30 10:13:11;;;;;;;7.33;1.83;;;6.30;99.90;;;;;;5002756;28;20681;-66
2023/01/30 10:16:13;;;;;;;4.77;1.83;;;6.30;99.90;;;;;;5003378;28;20195;-65
2023/01/30 10:18:54;;;;;;;4.67;1.70;;;6.50;99.90;;;;;;4995443;28;20637;-67
2023/01/30 10:21:41;;;;;;;4.03;1.87;;;6.60;99.90;;;;;;5005017;28;20264;-65
2023/01/30 10:24:12;;;;;;;12.53;2.83;;;6.60;99.90;;;;;;5006672;28;20203;-65
2023/01/30 10:26:40;;;;;;;7.20;2.07;;;6.60;99.90;;;;;;5002596;28;20224;-63
2023/01/30 10:29:16;;;;;;;6.30;2.57;;;6.70;99.90;;;;;;5010069;28;20257;-62
2023/01/30 10:31:57;;;;;;;8.43;2.73;;;6.80;99.90;;;;;;5005258;28;20269;-63
2023/01/30 10:34:33;;;;;;;8.60;2.03;;;6.90;99.90;;;;;;5007950;28;20850;-63
2023/01/30 10:37:16;;;;;;;6.47;2.30;;;6.80;99.90;;;;;;5010727;28;20253;-63
2023/01/30 10:40:17;;;;;;;6.77;1.83;;;6.90;99.90;;;;;;4985790;28;20238;-65
2023/01/30 10:43:02;;;;;;;7.63;2.20;;;6.80;99.90;;;;;;5004251;28;20389;-64
2023/01/30 10:45:36;;;;;;;6.67;1.63;;;6.80;99.90;;;;;;5005675;28;20200;-63
2023/01/30 10:48:33;;;;;;;12.80;2.47;;;6.80;99.90;;;;;;4999937;28;20712;-64
2023/01/30 10:51:04;;;;;;;5.57;1.90;;;6.80;99.90;;;;;;5005759;28;20222;-63
2023/01/30 10:53:59;;;;;;;4.87;2.63;;;6.70;99.90;;;;;;5007510;28;20196;-67
2023/01/30 10:56:47;;;;;;;6.53;2.00;;;6.70;99.90;;;;;;5004765;28;20231;-65
2023/01/30 10:59:46;;;;;;;8.20;2.77;;;6.70;99.90;;;;;;5009751;28;20279;-65
2023/01/30 11:02:33;;;;;;;13.43;2.87;;;6.80;99.90;;;;;;5008207;28;20290;-65
2023/01/30 11:05:02;;;;;;;4.67;1.30;;;6.70;99.90;;;;;;5007482;28;20212;-63
2023/01/30 11:07:30;;;;;;;8.53;1.47;;;6.50;99.90;;;;;;4996423;28;20578;-64
2023/01/30 11:09:57;;;;;;;15.33;3.13;;;6.40;99.90;;;;;;5003814;28;20210;-62
2023/01/30 11:12:23;;;;;;;9.40;2.37;;;6.40;99.90;;;;;;5010389;28;20293;-62
2023/01/30 11:14:59;;;;;;;15.67;3.20;;;6.40;99.90;;;;;;5015463;28;20742;-62
2023/01/30 11:17:34;;;;;;;7.67;2.07;;;6.40;99.90;;;;;;5007425;28;20338;-62
2023/01/30 11:20:12;;;;;;;5.40;2.30;;;6.60;99.90;;;;;;5008796;28;20290;-61
2023/01/30 11:22:48;;;;;;;10.90;2.50;;;6.60;99.90;;;;;;4990464;28;20215;-63
2023/01/30 11:25:17;;;;;;;10.77;3.13;;;6.60;99.90;;;;;;5013397;28;20198;-61
2023/01/30 11:27:50;;;;;;;4.60;1.23;;;6.70;99.90;;;;;;5011649;28;20277;-62
2023/01/30 11:30:18;;;;;;;9.40;3.43;;;6.60;99.90;;;;;;5017627;28;20202;-63
2023/01/30 11:32:46;;;;;;;8.40;2.67;;;6.60;99.90;;;;;;5014725;28;20293;-62
2023/01/30 11:35:14;;;;;;;14.43;3.43;;;6.60;99.90;;;;;;5016031;28;20203;-60
2023/01/30 11:37:41;;;;;;;10.70;2.67;;;6.60;99.90;;;;;;5012449;28;20238;-61
2023/01/30 11:40:27;;;;;;;12.57;2.80;;;6.50;99.90;;;;;;5012112;28;20199;-62
2023/01/30 11:43:03;;;;;;;7.07;2.33;;;6.50;99.90;;;;;;5014136;28;20329;-63
2023/01/30 11:45:33;;;;;;;4.27;2.73;;;6.40;99.90;;;;;;5015513;28;20281;-62
2023/01/30 11:48:03;;;;;;;7.10;2.27;;;6.30;99.90;;;;;;5010376;28;20240;-63
2023/01/30 11:50:39;;;;;;;6.67;2.00;;;6.10;99.90;;;;;;5011214;28;20557;-63
2023/01/30 11:53:16;;;;;;;18.90;2.77;;;5.60;99.90;;;;;;5012358;28;20258;-62
2023/01/30 11:55:41;;;;;;;2.07;1.20;;;5.30;99.90;;;;;;5012084;28;20199;-66
2023/01/30 11:58:08;;;;;;;7.83;1.67;;;5.10;99.90;;;;;;5008979;28;20203;-66
2023/01/30 12:00:45;;;;;;;11.73;3.00;;;4.70;99.90;;;;;;5007175;28;20196;-64
2023/01/30 12:03:14;;;;;;;7.43;1.50;;;4.50;99.90;;;;;;5010548;28;20195;-66
2023/01/30 12:05:43;;;;;;;4.43;1.90;;;4.30;99.90;;;;;;5006036;28;20226;-64
2023/01/30 12:08:41;;;;;;;5.23;1.60;;;4.20;99.90;;;;;;5007925;28;20670;-64
2023/01/30 12:11:24;;;;;;;6.67;1.63;;;4.00;99.90;;;;;;5006451;28;20215;-64
2023/01/30 12:13:51;;;;;;;2.83;1.60;;;3.90;99.90;;;;;;5009219;28;20215;-65
2023/01/30 12:16:27;;;;;;;4.33;2.00;;;4.10;99.90;;;;;;5017169;28;20964;-63
2023/01/30 12:19:02;;;;;;;9.97;2.70;;;4.10;99.90;;;;;;5009760;28;20605;-63
2023/01/30 12:21:45;;;;;;;7.23;2.43;;;4.30;99.90;;;;;;5008362;28;20776;-62
2023/01/30 12:24:14;;;;;;;5.00;2.77;;;4.60;99.90;;;;;;5011214;28;20204;-63
2023/01/30 12:26:46;;;;;;;14.40;4.13;;;5.10;99.90;;;;;;5008724;28;20203;-64
2023/01/30 12:29:33;;;;;;;16.33;4.37;;;5.40;99.90;;;;;;5010529;28;20222;-64
2023/01/30 12:32:13;;;;;;;8.40;3.73;;;5.90;99.90;;;;;;5007027;28;20234;-62
2023/01/30 12:34:39;;;;;;;13.40;3.67;;;6.10;99.90;;;;;;5008037;28;20611;-64
2023/01/30 12:37:31;;;;;;;11.27;2.30;;;5.80;99.90;;;;;;5006185;28;20620;-66
2023/01/30 12:40:20;;;;;;;8.97;1.90;;;5.60;99.90;;;;;;5007270;28;20281;-65
2023/01/30 12:43:15;;;;;;;8.97;3.00;;;5.60;99.90;;;;;;5011569;28;20203;-64
2023/01/30 12:45:59;;;;;;;9.90;3.30;;;6.10;99.90;;;;;;4993421;28;20290;-66
2023/01/30 12:48:37;;;;;;;8.50;2.87;;;7.10;99.90;;;;;;5006037;28;20299;-64
2023/01/30 12:51:37;;;;;;;6.80;2.13;;;7.60;99.90;;;;;;5008665;28;20203;-65
2023/01/30 12:54:30;;;;;;;10.57;2.50;;;7.90;99.90;;;;;;5006808;28;20717;-66
2023/01/30 12:57:24;;;;;;;11.17;2.40;;;8.20;99.90;;;;;;4997658;28;20231;-65
2023/01/30 13:00:36;;;;;;;8.87;2.33;;;8.50;99.90;;;;;;5001372;28;20816;-67
2023/01/30 13:03:28;;;;;;;12.03;3.27;;;7.70;99.90;;;;;;5003139;28;20199;-65
2023/01/30 13:06:18;;;;;;;3.90;1.63;;;7.10;99.90;;;;;;5005985;28;20325;-66
2023/01/30 13:09:14;;;;;;;7.67;2.10;;;6.80;99.90;;;;;;5003957;28;20212;-66
2023/01/30 13:11:52;;;;;;;6.13;1.90;;;6.60;99.90;;;;;;5008959;28;20231;-65
2023/01/30 13:14:23;;;;;;;6.40;1.90;;;6.50;99.90;;;;;;5007966;28;21226;-69